sensor_id;sensor_type;location;lat;lon;timestamp;pressure;altitude;pressure_sealevel;temperature;humidity
66664;BME280;59683;51.428;-1.994;2023-08-06T06:16:01;100944.34;;;9.90;100.00
66664;BME280;59683;51.428;-1.994;2023-08-06T06:18:27;100955.88;;;10.26;100.00
66664;BME280;59683;51.428;-1.994;2023-08-06T06:20:52;100949.00;;;10.71;100.00
66664;BME280;59683;51.428;-1.994;2023-08-06T06:23:17;100948.66;;;11.22;100.00
66664;BME280;59683;51.428;-1.994;2023-08-06T06:25:52;100963.75;;;11.66;100.00
66664;BME280;59683;51.428;-1.994;2023-08-06T06:28:18;100970.28;;;12.07;100.00
66664;BME280;59683;51.428;-1.994;2023-08-06T06:30:43;100964.09;;;12.61;100.00
66664;BME280;59683;51.428;-1.994;2023-08-06T06:33:09;100975.06;;;12.89;100.00
66664;BME280;59683;51.428;-1.994;2023-08-06T06:35:34;100972.50;;;12.99;100.00
66664;BME280;59683;51.428;-1.994;2023-08-06T06:38:00;100979.75;;;13.39;100.00
66664;BME280;59683;51.428;-1.994;2023-08-06T06:40:25;100983.94;;;13.93;100.00
66664;BME280;59683;51.428;-1.994;2023-08-06T06:42:51;100988.84;;;14.38;100.00
66664;BME280;59683;51.428;-1.994;2023-08-06T06:45:16;100991.97;;;14.52;100.00
66664;BME280;59683;51.428;-1.994;2023-08-06T06:47:42;100987.63;;;14.71;100.00
66664;BME280;59683;51.428;-1.994;2023-08-06T06:50:07;100998.69;;;14.95;100.00
66664;BME280;59683;51.428;-1.994;2023-08-06T06:52:33;100987.78;;;15.55;100.00
66664;BME280;59683;51.428;-1.994;2023-08-06T06:54:58;100973.19;;;15.69;100.00
66664;BME280;59683;51.428;-1.994;2023-08-06T06:57:23;100936.63;;;16.07;100.00
66664;BME280;59683;51.428;-1.994;2023-08-06T06:59:49;100906.63;;;15.95;100.00
66664;BME280;59683;51.428;-1.994;2023-08-06T07:02:14;100906.41;;;16.24;100.00
66664;BME280;59683;51.428;-1.994;2023-08-06T07:04:40;100911.41;;;16.98;100.00
66664;BME280;59683;51.428;-1.994;2023-08-06T07:07:05;100918.03;;;17.12;100.00
66664;BME280;59683;51.428;-1.994;2023-08-06T07:09:30;100925.88;;;17.40;100.00
66664;BME280;59683;51.428;-1.994;2023-08-06T07:11:56;100920.31;;;17.07;100.00
66664;BME280;59683;51.428;-1.994;2023-08-06T07:14:21;100920.81;;;16.85;100.00
66664;BME280;59683;51.428;-1.994;2023-08-06T07:16:47;100918.00;;;16.50;100.00
66664;BME280;59683;51.428;-1.994;2023-08-06T09:25:26;100925.59;;;23.43;100.00
66664;BME280;59683;51.428;-1.994;2023-08-06T10:19:27;100947.06;;;20.75;100.00
66664;BME280;59683;51.428;-1.994;2023-08-06T10:22:44;100939.63;;;21.38;100.00
66664;BME280;59683;51.428;-1.994;2023-08-06T10:34:07;100944.81;;;24.03;100.00
66664;BME280;59683;51.428;-1.994;2023-08-06T10:36:32;100949.75;;;23.86;84.05
66664;BME280;59683;51.428;-1.994;2023-08-06T10:42:22;100950.03;;;22.21;100.00
66664;BME280;59683;51.428;-1.994;2023-08-06T11:29:28;100949.75;;;25.60;61.18
66664;BME280;59683;51.428;-1.994;2023-08-06T12:31:56;100937.03;;;23.80;100.00
66664;BME280;59683;51.428;-1.994;2023-08-06T12:45:08;100934.63;;;20.20;100.00
66664;BME280;59683;51.428;-1.994;2023-08-06T13:34:35;100959.31;;;20.23;100.00
66664;BME280;59683;51.428;-1.994;2023-08-06T13:37:00;100963.84;;;20.23;100.00
66664;BME280;59683;51.428;-1.994;2023-08-06T13:39:26;100953.19;;;20.69;100.00
66664;BME280;59683;51.428;-1.994;2023-08-06T13:41:51;100954.91;;;20.84;100.00
66664;BME280;59683;51.428;-1.994;2023-08-06T13:44:17;100951.94;;;21.47;100.00
66664;BME280;59683;51.428;-1.994;2023-08-06T13:46:42;100942.22;;;21.46;100.00
66664;BME280;59683;51.428;-1.994;2023-08-06T13:49:08;100943.03;;;21.76;100.00
66664;BME280;59683;51.428;-1.994;2023-08-06T13:51:33;100938.91;;;22.46;100.00
66664;BME280;59683;51.428;-1.994;2023-08-06T13:54:00;100944.75;;;22.92;100.00
66664;BME280;59683;51.428;-1.994;2023-08-06T13:56:26;100937.81;;;22.83;100.00
66664;BME280;59683;51.428;-1.994;2023-08-06T13:58:51;100942.91;;;23.21;100.00
66664;BME280;59683;51.428;-1.994;2023-08-06T14:01:17;100939.59;;;23.88;100.00
66664;BME280;59683;51.428;-1.994;2023-08-06T14:03:44;100955.81;;;24.63;100.00
66664;BME280;59683;51.428;-1.994;2023-08-06T14:06:09;100953.34;;;25.08;100.00
66664;BME280;59683;51.428;-1.994;2023-08-06T14:08:34;100955.66;;;25.24;94.46
66664;BME280;59683;51.428;-1.994;2023-08-06T14:11:00;100953.09;;;25.56;100.00
66664;BME280;59683;51.428;-1.994;2023-08-06T14:13:25;100956.88;;;26.83;91.50
66664;BME280;59683;51.428;-1.994;2023-08-06T14:15:51;100958.16;;;27.49;68.53
66664;BME280;59683;51.428;-1.994;2023-08-06T14:18:16;100958.25;;;26.92;63.93
66664;BME280;59683;51.428;-1.994;2023-08-06T14:20:42;100967.03;;;26.62;76.38
66664;BME280;59683;51.428;-1.994;2023-08-06T14:23:08;100957.97;;;27.00;66.65
66664;BME280;59683;51.428;-1.994;2023-08-06T14:25:33;100956.19;;;27.38;71.40
66664;BME280;59683;51.428;-1.994;2023-08-06T14:27:59;100956.59;;;27.59;67.89
66664;BME280;59683;51.428;-1.994;2023-08-06T14:30:24;100979.72;;;26.75;77.52
66664;BME280;59683;51.428;-1.994;2023-08-06T14:32:50;100982.31;;;24.87;97.13
66664;BME280;59683;51.428;-1.994;2023-08-06T14:35:15;100981.50;;;23.15;100.00
66664;BME280;59683;51.428;-1.994;2023-08-06T14:37:40;100979.56;;;21.64;100.00
66664;BME280;59683;51.428;-1.994;2023-08-06T14:40:07;100969.31;;;20.37;100.00
66664;BME280;59683;51.428;-1.994;2023-08-06T14:42:33;100961.16;;;19.20;100.00
66664;BME280;59683;51.428;-1.994;2023-08-06T14:44:58;100957.16;;;18.75;100.00
66664;BME280;59683;51.428;-1.994;2023-08-06T14:47:24;100973.09;;;18.84;100.00
66664;BME280;59683;51.428;-1.994;2023-08-06T14:49:49;100968.47;;;19.67;100.00
66664;BME280;59683;51.428;-1.994;2023-08-06T14:52:16;100963.63;;;20.64;100.00
66664;BME280;59683;51.428;-1.994;2023-08-06T14:54:41;100968.28;;;22.04;100.00
66664;BME280;59683;51.428;-1.994;2023-08-06T14:57:06;100970.84;;;23.07;100.00
66664;BME280;59683;51.428;-1.994;2023-08-06T14:59:33;100975.75;;;23.87;100.00
66664;BME280;59683;51.428;-1.994;2023-08-06T15:01:59;100975.63;;;24.70;100.00
66664;BME280;59683;51.428;-1.994;2023-08-06T15:04:24;100986.03;;;25.66;100.00
66664;BME280;59683;51.428;-1.994;2023-08-06T15:06:49;100985.47;;;26.09;100.00
66664;BME280;59683;51.428;-1.994;2023-08-06T15:09:15;100984.13;;;26.25;100.00
66664;BME280;59683;51.428;-1.994;2023-08-06T15:11:40;100981.59;;;25.72;100.00
66664;BME280;59683;51.428;-1.994;2023-08-06T15:14:06;100989.88;;;26.86;84.86
66664;BME280;59683;51.428;-1.994;2023-08-06T15:16:35;100990.78;;;26.74;81.86
66664;BME280;59683;51.428;-1.994;2023-08-06T15:19:01;100984.88;;;26.07;86.45
66664;BME280;59683;51.428;-1.994;2023-08-06T15:21:27;100986.91;;;25.33;94.18
66664;BME280;59683;51.428;-1.994;2023-08-06T15:23:52;100989.47;;;24.34;100.00
66664;BME280;59683;51.428;-1.994;2023-08-06T15:26:18;100983.75;;;23.11;100.00
66664;BME280;59683;51.428;-1.994;2023-08-06T15:28:44;100989.50;;;21.93;100.00
66664;BME280;59683;51.428;-1.994;2023-08-06T15:31:09;100997.25;;;20.82;100.00
66664;BME280;59683;51.428;-1.994;2023-08-06T15:33:35;101012.44;;;19.65;100.00
66664;BME280;59683;51.428;-1.994;2023-08-06T15:36:00;101023.88;;;18.35;100.00
66664;BME280;59683;51.428;-1.994;2023-08-06T15:38:26;101015.97;;;17.31;100.00
66664;BME280;59683;51.428;-1.994;2023-08-06T15:40:51;101026.25;;;16.55;100.00
66664;BME280;59683;51.428;-1.994;2023-08-06T15:43:17;101005.19;;;16.06;100.00
66664;BME280;59683;51.428;-1.994;2023-08-06T15:45:42;100995.56;;;15.86;100.00
66664;BME280;59683;51.428;-1.994;2023-08-06T15:48:07;101009.91;;;15.85;100.00
66664;BME280;59683;51.428;-1.994;2023-08-06T15:50:36;101009.97;;;16.30;100.00
66664;BME280;59683;51.428;-1.994;2023-08-06T15:53:02;101013.59;;;18.06;100.00
66664;BME280;59683;51.428;-1.994;2023-08-06T15:55:28;101000.19;;;19.47;100.00
66664;BME280;59683;51.428;-1.994;2023-08-06T15:57:53;101003.31;;;20.84;100.00
66664;BME280;59683;51.428;-1.994;2023-08-06T16:00:19;101004.44;;;21.80;100.00
66664;BME280;59683;51.428;-1.994;2023-08-06T16:02:44;101003.22;;;22.13;100.00
66664;BME280;59683;51.428;-1.994;2023-08-06T16:05:10;101004.63;;;21.94;100.00
66664;BME280;59683;51.428;-1.994;2023-08-06T16:07:36;101005.59;;;20.96;100.00
66664;BME280;59683;51.428;-1.994;2023-08-06T16:10:02;100991.06;;;20.20;100.00
66664;BME280;59683;51.428;-1.994;2023-08-06T16:12:28;100997.66;;;21.17;100.00
66664;BME280;59683;51.428;-1.994;2023-08-06T16:14:54;101003.91;;;22.51;100.00
66664;BME280;59683;51.428;-1.994;2023-08-06T16:17:19;100999.06;;;23.88;100.00
66664;BME280;59683;51.428;-1.994;2023-08-06T16:19:44;100989.81;;;25.38;100.00
66664;BME280;59683;51.428;-1.994;2023-08-06T16:22:10;101003.53;;;26.73;100.00
66664;BME280;59683;51.428;-1.994;2023-08-06T16:24:35;101002.50;;;27.49;100.00
66664;BME280;59683;51.428;-1.994;2023-08-06T16:27:01;101004.81;;;27.89;100.00
66664;BME280;59683;51.428;-1.994;2023-08-06T16:29:26;101003.25;;;28.78;100.00
66664;BME280;59683;51.428;-1.994;2023-08-06T16:31:51;101000.03;;;29.12;93.13
66664;BME280;59683;51.428;-1.994;2023-08-06T16:34:18;101000.16;;;28.45;94.83
66664;BME280;59683;51.428;-1.994;2023-08-06T16:36:44;100998.84;;;28.17;90.96
66664;BME280;59683;51.428;-1.994;2023-08-06T16:39:09;101001.34;;;28.00;96.70
66664;BME280;59683;51.428;-1.994;2023-08-06T16:41:35;101000.47;;;28.37;89.80
66664;BME280;59683;51.428;-1.994;2023-08-06T16:44:01;101006.94;;;28.54;91.89
66664;BME280;59683;51.428;-1.994;2023-08-06T16:46:26;101010.78;;;27.98;93.18
66664;BME280;59683;51.428;-1.994;2023-08-06T16:48:51;101024.38;;;26.34;98.17
66664;BME280;59683;51.428;-1.994;2023-08-06T16:51:17;101022.63;;;24.56;100.00
66664;BME280;59683;51.428;-1.994;2023-08-06T16:53:43;101017.47;;;22.58;100.00
66664;BME280;59683;51.428;-1.994;2023-08-06T16:56:11;101012.13;;;21.39;100.00
66664;BME280;59683;51.428;-1.994;2023-08-06T16:58:37;101012.47;;;21.36;100.00
66664;BME280;59683;51.428;-1.994;2023-08-06T17:01:02;101022.31;;;21.06;100.00
66664;BME280;59683;51.428;-1.994;2023-08-06T17:03:31;101026.31;;;20.64;100.00
66664;BME280;59683;51.428;-1.994;2023-08-06T17:05:56;101023.59;;;20.02;100.00
66664;BME280;59683;51.428;-1.994;2023-08-06T17:08:21;101021.34;;;19.17;100.00
66664;BME280;59683;51.428;-1.994;2023-08-06T17:10:47;101033.59;;;18.28;100.00
66664;BME280;59683;51.428;-1.994;2023-08-06T17:13:13;101022.38;;;17.38;100.00
66664;BME280;59683;51.428;-1.994;2023-08-06T17:15:38;101015.50;;;16.74;100.00
66664;BME280;59683;51.428;-1.994;2023-08-06T17:18:04;101020.94;;;16.27;100.00
66664;BME280;59683;51.428;-1.994;2023-08-06T17:20:29;101020.25;;;15.97;100.00
66664;BME280;59683;51.428;-1.994;2023-08-06T17:22:54;101023.28;;;15.75;100.00
66664;BME280;59683;51.428;-1.994;2023-08-06T17:25:20;101024.41;;;15.63;100.00
66664;BME280;59683;51.428;-1.994;2023-08-06T17:27:47;101032.44;;;15.53;100.00
66664;BME280;59683;51.428;-1.994;2023-08-06T17:30:13;101029.53;;;15.46;100.00
66664;BME280;59683;51.428;-1.994;2023-08-06T17:32:38;101021.38;;;15.38;100.00
66664;BME280;59683;51.428;-1.994;2023-08-06T17:35:05;101037.38;;;15.48;100.00
66664;BME280;59683;51.428;-1.994;2023-08-06T17:37:31;101047.88;;;15.59;100.00
66664;BME280;59683;51.428;-1.994;2023-08-06T17:39:57;101062.75;;;15.71;100.00
66664;BME280;59683;51.428;-1.994;2023-08-06T17:42:22;101069.06;;;15.61;100.00
66664;BME280;59683;51.428;-1.994;2023-08-06T17:44:47;101067.00;;;15.54;100.00
66664;BME280;59683;51.428;-1.994;2023-08-06T17:47:13;101075.72;;;15.47;100.00
66664;BME280;59683;51.428;-1.994;2023-08-06T17:49:38;101073.75;;;15.39;100.00
66664;BME280;59683;51.428;-1.994;2023-08-06T17:52:07;101079.66;;;15.33;100.00
66664;BME280;59683;51.428;-1.994;2023-08-06T17:54:34;101088.06;;;15.28;100.00
66664;BME280;59683;51.428;-1.994;2023-08-06T17:56:59;101094.25;;;15.29;100.00
66664;BME280;59683;51.428;-1.994;2023-08-06T17:59:24;101092.31;;;15.31;100.00
66664;BME280;59683;51.428;-1.994;2023-08-06T18:01:50;101091.59;;;15.39;100.00
66664;BME280;59683;51.428;-1.994;2023-08-06T18:04:15;101083.16;;;15.34;100.00
66664;BME280;59683;51.428;-1.994;2023-08-06T18:06:41;101092.84;;;15.25;100.00
66664;BME280;59683;51.428;-1.994;2023-08-06T18:09:06;101092.72;;;15.17;100.00
66664;BME280;59683;51.428;-1.994;2023-08-06T18:11:31;101092.28;;;15.12;100.00
66664;BME280;59683;51.428;-1.994;2023-08-06T18:13:57;101100.00;;;15.05;100.00
66664;BME280;59683;51.428;-1.994;2023-08-06T18:16:22;101089.47;;;14.94;100.00
66664;BME280;59683;51.428;-1.994;2023-08-06T18:18:47;101090.44;;;14.83;100.00
66664;BME280;59683;51.428;-1.994;2023-08-06T18:21:16;101090.69;;;14.70;100.00
66664;BME280;59683;51.428;-1.994;2023-08-06T18:23:42;101085.75;;;14.56;100.00
66664;BME280;59683;51.428;-1.994;2023-08-06T18:26:07;101092.69;;;14.47;100.00
66664;BME280;59683;51.428;-1.994;2023-08-06T18:28:33;101095.34;;;14.38;100.00
66664;BME280;59683;51.428;-1.994;2023-08-06T18:30:58;101102.19;;;14.30;100.00
66664;BME280;59683;51.428;-1.994;2023-08-06T18:33:24;101097.53;;;14.23;100.00
66664;BME280;59683;51.428;-1.994;2023-08-06T18:35:49;101092.72;;;14.17;100.00
66664;BME280;59683;51.428;-1.994;2023-08-06T18:38:14;101096.78;;;14.11;100.00
66664;BME280;59683;51.428;-1.994;2023-08-06T18:40:40;101093.66;;;14.06;100.00
66664;BME280;59683;51.428;-1.994;2023-08-06T18:43:06;101099.13;;;14.04;100.00
66664;BME280;59683;51.428;-1.994;2023-08-06T18:45:33;101089.84;;;13.99;100.00
66664;BME280;59683;51.428;-1.994;2023-08-06T18:48:07;101095.31;;;13.97;100.00
66664;BME280;59683;51.428;-1.994;2023-08-06T18:50:33;101095.16;;;13.99;100.00
66664;BME280;59683;51.428;-1.994;2023-08-06T18:53:03;101098.53;;;14.01;100.00
66664;BME280;59683;51.428;-1.994;2023-08-06T18:55:31;101097.81;;;13.99;100.00
66664;BME280;59683;51.428;-1.994;2023-08-06T18:58:00;101109.00;;;13.93;100.00
66664;BME280;59683;51.428;-1.994;2023-08-06T19:00:28;101108.09;;;13.82;100.00
66664;BME280;59683;51.428;-1.994;2023-08-06T19:02:53;101097.22;;;13.65;100.00
66664;BME280;59683;51.428;-1.994;2023-08-06T19:05:19;101101.50;;;13.56;100.00
66664;BME280;59683;51.428;-1.994;2023-08-06T19:07:44;101112.19;;;13.45;100.00
66664;BME280;59683;51.428;-1.994;2023-08-06T19:10:10;101115.34;;;13.39;100.00
66664;BME280;59683;51.428;-1.994;2023-08-06T19:12:35;101120.03;;;13.25;100.00
66664;BME280;59683;51.428;-1.994;2023-08-06T19:15:01;101122.44;;;13.17;100.00
66664;BME280;59683;51.428;-1.994;2023-08-06T19:17:26;101120.66;;;13.06;100.00
66664;BME280;59683;51.428;-1.994;2023-08-06T19:19:51;101127.00;;;12.94;100.00
66664;BME280;59683;51.428;-1.994;2023-08-06T19:22:17;101129.53;;;12.84;100.00
66664;BME280;59683;51.428;-1.994;2023-08-06T19:24:42;101138.25;;;12.75;100.00
66664;BME280;59683;51.428;-1.994;2023-08-06T19:27:08;101132.09;;;12.63;100.00
66664;BME280;59683;51.428;-1.994;2023-08-06T19:29:34;101137.06;;;12.57;100.00
66664;BME280;59683;51.428;-1.994;2023-08-06T19:31:59;101141.41;;;12.47;100.00
66664;BME280;59683;51.428;-1.994;2023-08-06T19:34:24;101137.06;;;12.34;100.00
66664;BME280;59683;51.428;-1.994;2023-08-06T19:36:50;101143.59;;;12.30;100.00
66664;BME280;59683;51.428;-1.994;2023-08-06T19:39:15;101146.94;;;12.21;100.00
66664;BME280;59683;51.428;-1.994;2023-08-06T19:41:41;101161.19;;;12.20;100.00
66664;BME280;59683;51.428;-1.994;2023-08-06T19:44:07;101159.00;;;12.14;100.00
66664;BME280;59683;51.428;-1.994;2023-08-06T19:46:32;101158.53;;;12.09;100.00
66664;BME280;59683;51.428;-1.994;2023-08-06T19:48:58;101160.94;;;12.01;100.00
66664;BME280;59683;51.428;-1.994;2023-08-06T19:51:23;101168.63;;;11.93;100.00
66664;BME280;59683;51.428;-1.994;2023-08-06T19:53:50;101173.25;;;11.78;100.00
66664;BME280;59683;51.428;-1.994;2023-08-06T19:56:15;101171.50;;;11.65;100.00
66664;BME280;59683;51.428;-1.994;2023-08-06T19:58:41;101177.53;;;11.56;100.00
66664;BME280;59683;51.428;-1.994;2023-08-06T20:01:06;101178.44;;;11.44;100.00
66664;BME280;59683;51.428;-1.994;2023-08-06T20:03:34;101172.56;;;11.28;100.00
66664;BME280;59683;51.428;-1.994;2023-08-06T20:06:03;101188.59;;;11.26;100.00
66664;BME280;59683;51.428;-1.994;2023-08-06T20:08:31;101191.03;;;11.29;100.00
66664;BME280;59683;51.428;-1.994;2023-08-06T20:10:57;101199.06;;;11.28;100.00
66664;BME280;59683;51.428;-1.994;2023-08-06T20:13:23;101195.91;;;11.23;100.00
66664;BME280;59683;51.428;-1.994;2023-08-06T20:15:49;101205.25;;;11.15;100.00
66664;BME280;59683;51.428;-1.994;2023-08-06T20:18:15;101199.19;;;11.02;100.00
66664;BME280;59683;51.428;-1.994;2023-08-06T20:20:42;101202.59;;;10.91;100.00
66664;BME280;59683;51.428;-1.994;2023-08-06T20:23:07;101202.59;;;10.79;100.00
66664;BME280;59683;51.428;-1.994;2023-08-06T20:25:33;101213.34;;;10.64;100.00
66664;BME280;59683;51.428;-1.994;2023-08-06T20:27:59;101209.84;;;10.51;100.00
66664;BME280;59683;51.428;-1.994;2023-08-06T20:30:25;101218.75;;;10.37;100.00
66664;BME280;59683;51.428;-1.994;2023-08-06T20:32:50;101222.31;;;10.24;100.00
66664;BME280;59683;51.428;-1.994;2023-08-06T20:35:15;101219.56;;;10.12;100.00
66664;BME280;59683;51.428;-1.994;2023-08-06T20:37:41;101226.66;;;10.12;100.00
66664;BME280;59683;51.428;-1.994;2023-08-06T20:40:08;101227.38;;;10.01;100.00
66664;BME280;59683;51.428;-1.994;2023-08-06T20:42:33;101232.34;;;9.93;100.00
66664;BME280;59683;51.428;-1.994;2023-08-06T20:44:59;101231.97;;;9.85;100.00
66664;BME280;59683;51.428;-1.994;2023-08-06T20:47:24;101241.19;;;9.79;100.00
66664;BME280;59683;51.428;-1.994;2023-08-06T20:49:50;101231.84;;;9.73;100.00
66664;BME280;59683;51.428;-1.994;2023-08-06T20:52:15;101228.88;;;9.65;100.00
